createdAt,value
2023-04-24T00:01:53.273Z,3.47
2023-04-24T00:04:19.938Z,3.73
2023-04-24T00:06:50.518Z,3.90
2023-04-24T00:09:17.094Z,4.10
2023-04-24T00:11:43.664Z,3.73
2023-04-24T00:14:10.163Z,3.93
2023-04-24T00:16:36.734Z,4.00
2023-04-24T00:19:03.329Z,4.13
2023-04-24T00:21:29.836Z,3.70
2023-04-24T00:23:56.433Z,3.53
2023-04-24T00:26:24.079Z,3.90
2023-04-24T00:28:50.704Z,4.00
2023-04-24T00:31:17.307Z,3.87
2023-04-24T00:33:43.892Z,4.00
2023-04-24T00:36:10.614Z,3.77
2023-04-24T00:38:37.186Z,3.70
2023-04-24T00:41:04.165Z,3.63
2023-04-24T00:43:30.709Z,3.90
2023-04-24T00:45:57.832Z,3.90
2023-04-24T00:48:24.951Z,3.97
2023-04-24T00:50:51.766Z,3.60
2023-04-24T00:53:18.314Z,3.97
2023-04-24T00:55:45.053Z,4.10
2023-04-24T00:58:12.077Z,3.90
2023-04-24T01:00:38.580Z,4.10
2023-04-24T01:03:06.196Z,4.00
2023-04-24T01:05:34.382Z,4.20
2023-04-24T01:08:01.873Z,4.20
2023-04-24T01:10:28.659Z,3.77
2023-04-24T01:12:55.405Z,4.20
2023-04-24T01:15:21.949Z,4.30
2023-04-24T01:17:48.585Z,4.00
2023-04-24T01:20:15.475Z,4.00
2023-04-24T01:22:42.579Z,4.53
2023-04-24T01:25:09.732Z,4.00
2023-04-24T01:27:36.357Z,3.90
2023-04-24T01:30:02.996Z,3.70
2023-04-24T01:32:30.634Z,3.70
2023-04-24T01:34:57.530Z,3.57
2023-04-24T01:37:24.058Z,3.90
2023-04-24T01:39:50.791Z,3.70
2023-04-24T01:42:18.804Z,3.97
2023-04-24T01:44:47.988Z,4.10
2023-04-24T01:47:14.584Z,3.53
2023-04-24T01:49:41.734Z,4.03
2023-04-24T01:52:08.662Z,4.03
2023-04-24T01:54:35.293Z,4.03
2023-04-24T01:57:03.599Z,4.40
2023-04-24T01:59:30.942Z,4.27
2023-04-24T02:01:57.486Z,4.43
2023-04-24T02:04:24.100Z,4.07
2023-04-24T02:06:50.740Z,4.70
2023-04-24T02:09:17.263Z,4.50
2023-04-24T02:11:44.107Z,4.47
2023-04-24T02:14:10.835Z,4.10
2023-04-24T02:16:40.191Z,4.50
2023-04-24T02:19:06.851Z,3.90
2023-04-24T02:21:33.814Z,3.70
2023-04-24T02:24:00.547Z,4.17
2023-04-24T02:26:27.238Z,4.10
2023-04-24T02:28:53.978Z,4.07
2023-04-24T02:31:21.111Z,4.00
2023-04-24T02:33:48.277Z,4.37
2023-04-24T02:36:15.087Z,4.50
2023-04-24T02:38:41.839Z,3.97
2023-04-24T02:41:08.440Z,3.80
2023-04-24T02:43:35.009Z,4.17
2023-04-24T02:46:01.629Z,4.13
2023-04-24T02:48:28.745Z,4.07
2023-04-24T02:50:55.522Z,4.00
2023-04-24T02:53:22.083Z,4.60
2023-04-24T02:55:48.594Z,4.10
2023-04-24T02:58:15.410Z,4.07
2023-04-24T03:00:42.002Z,4.10
2023-04-24T03:03:08.773Z,4.13
2023-04-24T03:05:35.582Z,3.93
2023-04-24T03:08:02.158Z,4.23
2023-04-24T03:10:28.724Z,4.40
2023-04-24T03:12:56.088Z,4.40
2023-04-24T03:15:22.711Z,4.27
2023-04-24T03:17:49.366Z,4.37
2023-04-24T03:20:16.558Z,4.28
2023-04-24T03:22:43.645Z,4.70
2023-04-24T03:25:10.558Z,4.63
2023-04-24T03:27:38.668Z,5.10
2023-04-24T03:30:12.379Z,5.00
2023-04-24T03:32:45.204Z,5.07
2023-04-24T03:35:14.877Z,4.67
2023-04-24T03:37:41.571Z,4.83
2023-04-24T03:40:26.593Z,5.00
2023-04-24T03:42:53.200Z,5.47
2023-04-24T03:45:19.841Z,4.67
2023-04-24T03:47:49.976Z,4.83
2023-04-24T03:50:16.680Z,4.43
2023-04-24T03:52:44.159Z,4.20
2023-04-24T03:55:16.490Z,4.00
2023-04-24T03:57:46.493Z,5.13
2023-04-24T04:00:22.093Z,6.77
2023-04-24T04:02:56.855Z,8.50
2023-04-24T04:05:23.647Z,6.17
2023-04-24T04:07:50.301Z,5.30
2023-04-24T04:10:18.331Z,5.40
2023-04-24T04:12:44.965Z,5.43
2023-04-24T04:15:11.637Z,5.50
2023-04-24T04:17:39.276Z,5.57
2023-04-24T04:20:09.772Z,5.03
2023-04-24T04:22:37.770Z,4.67
2023-04-24T04:25:08.942Z,4.67
2023-04-24T04:27:36.287Z,4.60
2023-04-24T04:30:10.756Z,4.00
2023-04-24T04:32:52.867Z,3.93
2023-04-24T04:35:22.878Z,4.83
2023-04-24T04:37:50.758Z,4.60
2023-04-24T04:40:37.599Z,4.57
2023-04-24T04:43:06.996Z,4.60
2023-04-24T04:45:42.485Z,4.63
2023-04-24T04:48:28.367Z,4.73
2023-04-24T04:50:56.598Z,4.60
2023-04-24T04:53:23.969Z,4.27
2023-04-24T04:55:50.582Z,4.97
2023-04-24T04:58:19.477Z,4.57
2023-04-24T05:00:48.642Z,4.60
2023-04-24T05:03:41.743Z,4.43
2023-04-24T05:06:11.055Z,4.00
2023-04-24T05:08:41.102Z,4.50
2023-04-24T05:11:12.107Z,4.50
2023-04-24T05:13:41.060Z,4.37
2023-04-24T05:16:25.999Z,4.20
2023-04-24T05:18:54.674Z,4.40
2023-04-24T05:21:27.835Z,3.80
2023-04-24T05:23:55.308Z,3.90
2023-04-24T05:26:42.113Z,3.10
2023-04-24T05:29:09.706Z,3.40
2023-04-24T05:31:37.521Z,3.60
2023-04-24T05:34:04.271Z,3.60
2023-04-24T05:36:31.915Z,3.10
2023-04-24T05:38:58.956Z,3.10
2023-04-24T05:41:30.254Z,3.17
2023-04-24T05:43:57.012Z,3.03
2023-04-24T05:46:23.631Z,2.70
2023-04-24T05:48:50.397Z,2.67
2023-04-24T05:51:16.932Z,2.80
2023-04-24T05:53:43.789Z,2.60
2023-04-24T05:56:11.396Z,2.40
2023-04-24T05:58:38.861Z,2.30
2023-04-24T06:01:05.790Z,2.37
2023-04-24T06:03:33.997Z,2.10
2023-04-24T06:06:03.394Z,2.20
2023-04-24T06:08:30.029Z,1.73
2023-04-24T06:10:56.674Z,2.10
2023-04-24T06:13:23.248Z,2.00
2023-04-24T06:16:08.256Z,1.70
2023-04-24T06:18:39.135Z,1.60
2023-04-24T06:21:06.433Z,1.73
2023-04-24T06:23:34.023Z,1.67
2023-04-24T06:26:00.817Z,1.63
2023-04-24T06:28:27.326Z,1.80
2023-04-24T06:30:53.924Z,1.50
2023-04-24T06:33:21.875Z,1.20
2023-04-24T06:35:50.328Z,1.13
2023-04-24T06:38:17.508Z,1.30
2023-04-24T06:40:44.186Z,1.10
2023-04-24T06:43:11.987Z,1.00
2023-04-24T06:45:40.293Z,0.83
2023-04-24T06:48:07.280Z,1.10
2023-04-24T06:50:33.813Z,1.20
2023-04-24T06:53:00.310Z,0.90
2023-04-24T06:55:26.814Z,0.80
2023-04-24T06:57:53.466Z,0.97
2023-04-24T07:00:20.408Z,0.93
2023-04-24T07:02:47.069Z,0.97
2023-04-24T07:05:13.813Z,1.03
2023-04-24T07:07:41.235Z,1.00
2023-04-24T07:10:09.585Z,0.97
2023-04-24T07:12:36.779Z,0.93
2023-04-24T07:15:03.416Z,0.90
2023-04-24T07:17:29.950Z,0.80
2023-04-24T07:19:56.522Z,1.00
2023-04-24T07:22:23.074Z,0.83
2023-04-24T07:24:49.610Z,0.90
2023-04-24T07:27:16.446Z,0.83
2023-04-24T07:29:53.092Z,0.83
2023-04-24T07:32:29.691Z,1.00
2023-04-24T07:34:56.194Z,0.70
2023-04-24T07:37:27.818Z,1.17
2023-04-24T07:39:55.650Z,1.00
2023-04-24T07:42:22.277Z,1.40
2023-04-24T07:44:48.922Z,1.20
2023-04-24T07:47:16.940Z,0.97
2023-04-24T07:49:45.384Z,1.10
2023-04-24T07:52:12.708Z,1.30
2023-04-24T07:54:39.271Z,1.00
2023-04-24T07:57:07.734Z,0.93
2023-04-24T07:59:34.334Z,1.00
2023-04-24T08:02:02.358Z,1.00
2023-04-24T08:04:29.241Z,0.80
2023-04-24T08:06:56.122Z,0.80
2023-04-24T08:09:22.639Z,1.00
2023-04-24T08:11:49.218Z,0.87
2023-04-24T08:14:15.969Z,1.03
2023-04-24T08:16:42.608Z,1.00
2023-04-24T08:19:09.294Z,0.93
2023-04-24T08:21:35.854Z,0.77
2023-04-24T08:24:06.129Z,1.10
2023-04-24T08:26:33.031Z,1.00
2023-04-24T08:28:59.677Z,1.00
2023-04-24T08:31:27.196Z,1.00
2023-04-24T08:33:53.791Z,1.20
2023-04-24T08:36:20.710Z,1.10
2023-04-24T08:38:47.777Z,1.13
2023-04-24T08:41:15.287Z,1.03
2023-04-24T08:43:41.877Z,1.10
2023-04-24T08:46:11.940Z,1.10
2023-04-24T08:48:39.284Z,1.27
2023-04-24T08:51:07.875Z,0.90
2023-04-24T08:53:34.863Z,1.00
2023-04-24T08:56:02.294Z,1.20
2023-04-24T08:58:29.385Z,1.10
2023-04-24T09:00:56.595Z,0.80
2023-04-24T09:03:23.597Z,0.93
2023-04-24T09:05:51.509Z,1.00
2023-04-24T09:08:18.996Z,1.00
2023-04-24T09:10:45.727Z,1.10
2023-04-24T09:13:12.808Z,0.90
2023-04-24T09:15:39.796Z,0.77
2023-04-24T09:18:06.456Z,0.80
2023-04-24T09:20:33.540Z,1.00
2023-04-24T09:23:00.258Z,0.80
2023-04-24T09:25:33.857Z,0.90
2023-04-24T09:28:04.306Z,0.90
2023-04-24T09:30:31.104Z,0.90
2023-04-24T09:33:16.685Z,0.77
2023-04-24T09:35:44.383Z,0.90
2023-04-24T09:38:11.808Z,0.70
2023-04-24T09:40:41.034Z,0.80
2023-04-24T09:43:11.155Z,0.70
2023-04-24T09:45:41.017Z,0.90
2023-04-24T09:48:11.305Z,0.80
2023-04-24T09:50:38.012Z,1.00
2023-04-24T09:53:05.374Z,0.70
2023-04-24T09:55:32.727Z,0.80
2023-04-24T09:58:01.214Z,0.80
2023-04-24T10:00:32.355Z,0.80
2023-04-24T10:03:02.634Z,0.60
2023-04-24T10:05:34.035Z,0.97
2023-04-24T10:08:05.255Z,0.90
2023-04-24T10:10:32.610Z,0.73
2023-04-24T10:13:00.111Z,0.73
2023-04-24T10:15:27.035Z,0.77
2023-04-24T10:17:54.203Z,0.73
2023-04-24T10:20:24.544Z,0.67
2023-04-24T10:22:52.532Z,0.90
2023-04-24T10:25:20.497Z,0.77
2023-04-24T10:27:47.397Z,0.80
2023-04-24T10:30:14.537Z,0.80
2023-04-24T10:32:41.134Z,0.60
2023-04-24T10:35:08.763Z,0.90
2023-04-24T10:37:37.547Z,0.90
2023-04-24T10:40:04.385Z,0.80
2023-04-24T10:42:30.911Z,0.80
2023-04-24T10:44:59.313Z,0.70
2023-04-24T10:47:26.238Z,0.80
2023-04-24T10:49:53.103Z,0.70
2023-04-24T10:52:19.891Z,0.80
2023-04-24T10:54:46.979Z,1.07
2023-04-24T10:57:20.386Z,0.90
2023-04-24T11:00:07.889Z,0.80
2023-04-24T11:02:38.183Z,0.90
2023-04-24T11:05:05.251Z,0.80
2023-04-24T11:07:51.858Z,0.70
2023-04-24T11:10:27.619Z,0.85
2023-04-24T11:12:54.185Z,0.70
2023-04-24T11:15:21.026Z,0.80
2023-04-24T11:17:47.571Z,0.90
2023-04-24T11:20:27.712Z,0.97
2023-04-24T11:22:56.169Z,0.90
2023-04-24T11:25:26.776Z,0.77
2023-04-24T11:28:04.197Z,0.60
2023-04-24T11:30:31.732Z,0.90
2023-04-24T11:33:02.723Z,0.70
2023-04-24T11:35:31.562Z,0.73
2023-04-24T11:40:27.807Z,0.70
2023-04-24T11:42:56.485Z,0.70
2023-04-24T11:45:24.642Z,0.70
2023-04-24T11:47:51.312Z,0.70
2023-04-24T11:50:18.676Z,0.60
2023-04-24T11:52:46.916Z,1.00
2023-04-24T11:55:16.140Z,0.70
2023-04-24T11:58:00.765Z,0.70
2023-04-24T12:00:31.150Z,0.60
2023-04-24T12:03:08.340Z,0.60
2023-04-24T12:05:35.966Z,0.63
2023-04-24T12:08:02.953Z,0.70
2023-04-24T12:10:30.527Z,0.63
2023-04-24T12:12:57.895Z,0.57
2023-04-24T12:15:24.910Z,0.83
2023-04-24T12:17:52.424Z,0.60
2023-04-24T12:20:24.340Z,0.53
2023-04-24T12:22:55.364Z,0.80
2023-04-24T12:25:23.394Z,0.70
2023-04-24T12:27:57.238Z,0.60
2023-04-24T12:30:29.332Z,0.60
2023-04-24T12:32:58.176Z,0.60
2023-04-24T12:35:25.426Z,0.57
2023-04-24T12:37:51.975Z,0.50
2023-04-24T12:40:20.456Z,0.80
2023-04-24T12:42:50.649Z,0.70
2023-04-24T12:45:18.040Z,0.60
2023-04-24T12:47:45.613Z,0.70
2023-04-24T12:50:13.430Z,0.63
2023-04-24T12:52:40.665Z,0.60
2023-04-24T12:55:10.168Z,0.60
2023-04-24T12:57:37.933Z,0.60
2023-04-24T13:00:05.624Z,0.80
2023-04-24T13:02:32.302Z,0.70
2023-04-24T13:04:59.417Z,0.60
2023-04-24T13:07:26.481Z,0.50
2023-04-24T13:09:53.387Z,0.60
2023-04-24T13:12:20.817Z,0.70
2023-04-24T13:14:47.544Z,0.87
2023-04-24T13:17:15.113Z,0.80
2023-04-24T13:19:42.854Z,0.90
2023-04-24T13:22:11.067Z,0.87
2023-04-24T13:24:39.859Z,1.30
2023-04-24T13:27:07.733Z,1.00
2023-04-24T13:29:34.662Z,0.97
2023-04-24T13:32:01.406Z,0.80
2023-04-24T13:34:27.974Z,0.80
2023-04-24T13:36:55.423Z,0.97
2023-04-24T13:39:22.236Z,0.57
2023-04-24T13:41:51.499Z,0.50
2023-04-24T13:44:18.832Z,0.63
2023-04-24T13:46:46.240Z,0.57
2023-04-24T13:49:13.289Z,0.60
2023-04-24T13:51:40.125Z,1.00
2023-04-24T13:54:06.950Z,0.70
2023-04-24T13:56:33.428Z,0.80
2023-04-24T13:58:59.915Z,0.80
2023-04-24T14:01:26.510Z,1.50
2023-04-24T14:03:53.789Z,2.03
2023-04-24T14:06:20.614Z,1.60
2023-04-24T14:08:48.295Z,1.20
2023-04-24T14:11:14.969Z,1.67
2023-04-24T14:13:42.379Z,1.67
2023-04-24T14:16:09.336Z,2.00
2023-04-24T14:18:37.160Z,1.70
2023-04-24T14:21:04.197Z,2.47
2023-04-24T14:23:31.431Z,3.27
2023-04-24T14:25:58.396Z,3.60
2023-04-24T14:28:25.483Z,2.40
2023-04-24T14:30:52.175Z,2.30
2023-04-24T14:33:19.048Z,2.10
2023-04-24T14:35:45.641Z,1.10
2023-04-24T14:38:12.149Z,1.30
2023-04-24T14:41:02.557Z,1.80
2023-04-24T14:43:25.573Z,2.37
2023-04-24T14:45:52.130Z,1.40
2023-04-24T14:48:18.766Z,1.37
2023-04-24T14:50:46.267Z,2.50
2023-04-24T14:53:12.813Z,1.40
2023-04-24T14:55:39.476Z,2.03
2023-04-24T14:58:06.214Z,1.27
2023-04-24T15:00:32.918Z,1.10
2023-04-24T15:02:59.673Z,0.93
2023-04-24T15:05:26.706Z,1.20
2023-04-24T15:07:53.330Z,1.00
2023-04-24T15:10:19.944Z,1.10
2023-04-24T15:12:46.466Z,1.00
2023-04-24T15:15:12.941Z,0.90
2023-04-24T15:17:39.505Z,0.87
2023-04-24T15:20:07.360Z,0.80
2023-04-24T15:22:33.998Z,1.07
2023-04-24T15:25:00.688Z,0.90
2023-04-24T15:27:27.320Z,0.80
2023-04-24T15:29:54.651Z,0.80
2023-04-24T15:32:21.425Z,0.93
2023-04-24T15:34:49.476Z,0.70
2023-04-24T15:37:18.356Z,0.80
2023-04-24T15:39:45.684Z,0.70
2023-04-24T15:42:12.185Z,0.90
2023-04-24T15:44:38.640Z,0.77
2023-04-24T15:47:05.423Z,0.80
2023-04-24T15:49:32.358Z,0.90
2023-04-24T15:51:58.878Z,0.80
2023-04-24T15:54:25.369Z,0.80
2023-04-24T15:56:51.915Z,0.70
2023-04-24T15:59:18.970Z,0.77
2023-04-24T16:01:45.621Z,1.00
2023-04-24T16:04:12.429Z,0.80
2023-04-24T16:06:39.236Z,0.90
2023-04-24T16:09:05.923Z,1.23
2023-04-24T16:11:34.149Z,1.03
2023-04-24T16:14:00.712Z,1.10
2023-04-24T16:16:27.885Z,2.47
2023-04-24T16:18:54.722Z,1.10
2023-04-24T16:21:21.316Z,1.50
2023-04-24T16:23:48.952Z,1.13
2023-04-24T16:26:15.809Z,1.67
2023-04-24T16:28:43.388Z,9.47
2023-04-24T16:31:10.322Z,4.97
2023-04-24T16:33:36.908Z,1.10
2023-04-24T16:36:04.718Z,1.00
2023-04-24T16:38:33.095Z,0.90
2023-04-24T16:40:59.645Z,1.03
2023-04-24T16:43:27.211Z,0.90
2023-04-24T16:45:54.421Z,0.90
2023-04-24T16:48:20.968Z,1.00
2023-04-24T16:50:47.544Z,1.00
2023-04-24T16:53:14.172Z,1.07
2023-04-24T16:55:40.714Z,1.23
2023-04-24T16:58:07.205Z,0.97
2023-04-24T17:00:33.770Z,1.10
2023-04-24T17:03:00.383Z,2.20
2023-04-24T17:05:27.037Z,1.20
2023-04-24T17:07:53.512Z,1.00
2023-04-24T17:10:20.132Z,1.10
2023-04-24T17:12:46.668Z,1.30
2023-04-24T17:15:13.126Z,1.00
2023-04-24T17:17:39.651Z,1.03
2023-04-24T17:20:20.675Z,0.80
2023-04-24T17:22:49.027Z,1.10
2023-04-24T17:25:15.564Z,1.00
2023-04-24T17:27:42.097Z,1.30
2023-04-24T17:30:08.816Z,1.60
2023-04-24T17:32:35.414Z,1.20
2023-04-24T17:35:02.197Z,1.20
2023-04-24T17:37:28.704Z,1.27
2023-04-24T17:39:55.337Z,1.00
2023-04-24T17:42:21.775Z,1.83
2023-04-24T17:44:48.381Z,0.90
2023-04-24T17:47:14.851Z,1.30
2023-04-24T17:49:41.513Z,0.90
2023-04-24T17:52:08.133Z,0.70
2023-04-24T17:54:34.862Z,0.73
2023-04-24T17:57:02.258Z,0.67
2023-04-24T17:59:28.880Z,1.47
2023-04-24T18:01:55.690Z,0.80
2023-04-24T18:04:22.384Z,1.00
2023-04-24T18:06:49.132Z,0.50
2023-04-24T18:09:18.820Z,0.60
2023-04-24T18:11:46.500Z,0.40
2023-04-24T18:14:12.998Z,0.97
2023-04-24T18:16:39.446Z,0.60
2023-04-24T18:19:05.957Z,1.30
2023-04-24T18:21:32.419Z,0.90
2023-04-24T18:24:01.610Z,0.70
2023-04-24T18:26:28.142Z,0.67
2023-04-24T18:28:54.643Z,0.53
2023-04-24T18:31:21.213Z,0.73
2023-04-24T18:33:48.080Z,0.50
2023-04-24T18:36:14.598Z,0.30
2023-04-24T18:38:41.035Z,0.30
2023-04-24T18:41:07.536Z,0.27
2023-04-24T18:43:34.051Z,0.33
2023-04-24T18:46:00.590Z,0.30
2023-04-24T18:48:29.772Z,0.37
2023-04-24T18:50:56.281Z,0.50
2023-04-24T18:53:22.783Z,0.30
2023-04-24T18:55:49.234Z,0.30
2023-04-24T18:58:15.858Z,0.30
2023-04-24T19:00:42.417Z,0.40
2023-04-24T19:03:09.342Z,0.30
2023-04-24T19:05:35.975Z,0.27
2023-04-24T19:08:02.534Z,0.30
2023-04-24T19:10:29.121Z,0.43
2023-04-24T19:12:56.932Z,0.37
2023-04-24T19:15:24.154Z,0.30
2023-04-24T19:17:51.680Z,0.40
2023-04-24T19:20:21.217Z,32.10
2023-04-24T19:22:47.821Z,37.47
2023-04-24T19:25:14.481Z,8.97
2023-04-24T19:27:41.373Z,2.00
2023-04-24T19:30:08.099Z,0.50
2023-04-24T19:32:34.631Z,0.60
2023-04-24T19:35:01.257Z,0.50
2023-04-24T19:37:27.890Z,0.30
2023-04-24T19:39:54.391Z,0.37
2023-04-24T19:42:28.426Z,0.37
2023-04-24T19:45:02.781Z,0.90
2023-04-24T19:47:29.270Z,0.73
2023-04-24T19:49:56.197Z,0.30
2023-04-24T19:52:22.748Z,0.30
2023-04-24T19:54:49.356Z,0.50
2023-04-24T19:57:15.817Z,0.37
2023-04-24T19:59:42.349Z,0.50
2023-04-24T20:02:10.339Z,0.30
2023-04-24T20:04:37.104Z,0.40
2023-04-24T20:07:03.830Z,0.47
2023-04-24T20:09:32.475Z,0.40
2023-04-24T20:11:59.509Z,0.30
2023-04-24T20:14:26.125Z,0.40
2023-04-24T20:16:54.293Z,0.50
2023-04-24T20:19:21.803Z,0.40
2023-04-24T20:21:48.455Z,0.50
2023-04-24T20:24:16.292Z,0.40
2023-04-24T20:26:43.118Z,0.40
2023-04-24T20:29:10.596Z,0.50
2023-04-24T20:31:37.441Z,0.33
2023-04-24T20:34:04.229Z,0.40
2023-04-24T20:36:30.769Z,0.37
2023-04-24T20:38:58.269Z,0.40
2023-04-24T20:41:24.947Z,0.30
2023-04-24T20:43:51.444Z,0.47
2023-04-24T20:46:17.970Z,0.40
2023-04-24T20:48:44.488Z,0.50
2023-04-24T20:51:11.126Z,0.40
2023-04-24T20:53:37.953Z,0.50
2023-04-24T20:56:04.542Z,0.50
2023-04-24T20:58:31.074Z,0.60
2023-04-24T21:00:57.596Z,0.70
2023-04-24T21:03:24.261Z,0.70
2023-04-24T21:05:51.090Z,0.60
2023-04-24T21:08:17.862Z,0.67
2023-04-24T21:10:44.428Z,0.60
2023-04-24T21:13:10.946Z,0.70
2023-04-24T21:15:37.467Z,0.80
2023-04-24T21:18:04.366Z,0.53
2023-04-24T21:20:31.035Z,0.90
2023-04-24T21:22:57.610Z,0.60
2023-04-24T21:25:24.090Z,0.60
2023-04-24T21:27:50.629Z,0.63
2023-04-24T21:30:17.215Z,0.60
2023-04-24T21:32:45.991Z,0.70
2023-04-24T21:35:12.558Z,0.70
2023-04-24T21:37:39.892Z,0.70
2023-04-24T21:40:07.547Z,0.80
2023-04-24T21:42:34.141Z,0.97
2023-04-24T21:45:00.885Z,0.80
2023-04-24T21:47:27.347Z,1.10
2023-04-24T21:49:54.158Z,1.20
2023-04-24T21:52:20.734Z,1.00
2023-04-24T21:54:47.259Z,1.10
2023-04-24T21:57:13.955Z,1.20
2023-04-24T21:59:40.655Z,1.10
2023-04-24T22:02:07.199Z,1.10
2023-04-24T22:04:33.805Z,1.00
2023-04-24T22:07:00.321Z,1.10
2023-04-24T22:09:26.844Z,0.93
2023-04-24T22:11:53.655Z,0.90
2023-04-24T22:14:20.257Z,0.80
2023-04-24T22:16:47.789Z,0.80
2023-04-24T22:19:14.418Z,1.00
2023-04-24T22:21:41.096Z,0.90
2023-04-24T22:24:07.998Z,1.03
2023-04-24T22:26:34.949Z,1.30
2023-04-24T22:29:01.587Z,1.00
2023-04-24T22:31:28.103Z,1.20
2023-04-24T22:33:54.637Z,1.10
2023-04-24T22:36:21.495Z,1.00
2023-04-24T22:38:48.004Z,1.10
2023-04-24T22:41:14.521Z,1.00
2023-04-24T22:43:41.372Z,1.03
2023-04-24T22:46:07.968Z,1.13
2023-04-24T22:48:34.654Z,1.13
2023-04-24T22:51:01.569Z,1.27
2023-04-24T22:53:28.913Z,1.30
2023-04-24T22:55:58.295Z,1.27
2023-04-24T22:58:25.050Z,1.60
2023-04-24T23:00:51.651Z,1.77
2023-04-24T23:03:18.277Z,2.10
2023-04-24T23:05:44.949Z,1.77
2023-04-24T23:08:11.489Z,1.80
2023-04-24T23:10:38.192Z,2.00
2023-04-24T23:13:04.773Z,2.10
2023-04-24T23:15:31.353Z,2.30
2023-04-24T23:17:57.938Z,2.20
2023-04-24T23:20:24.475Z,2.63
2023-04-24T23:22:51.237Z,2.03
2023-04-24T23:25:17.986Z,2.37
2023-04-24T23:27:44.501Z,2.20
2023-04-24T23:30:11.162Z,2.50
2023-04-24T23:32:37.771Z,2.60
2023-04-24T23:35:04.834Z,2.33
2023-04-24T23:37:31.327Z,2.70
2023-04-24T23:39:57.827Z,2.63
2023-04-24T23:42:24.619Z,2.40
2023-04-24T23:44:51.163Z,2.37
2023-04-24T23:47:18.175Z,2.30
2023-04-24T23:49:45.025Z,2.53
2023-04-24T23:52:11.659Z,2.70
2023-04-24T23:54:38.242Z,3.00
2023-04-24T23:57:04.771Z,2.90
2023-04-24T23:59:31.460Z,2.80
